Pacuja, Brazil
Current Conditions -  °F | °C
As of 12:00 AM on Wednesday 22 Oct 2014 (Local Time) from SBPB Reporting Station
Clear Clear  
Wind Chill: 81°   Ceiling: Unl
Heat Index: 85°   Visibility: 6mi
Dew Point: 72°   Wind: 9mph
Humidity: 74%   Direction: 90°E
Pressure: 29.85"   Gusts: NA
Location:  3.99°S, 40.7°W
Report Text: SBPB 220300Z 09008KT CAVOK 27/22 Q1011
Loading
Personal Weather Stations






























Interactive Weather Map
Tropical Storm Tracking
New forecast layout! Learn more

10-Day Weather Forecast

Advertisements
Track Severe Weather on mobile